sensor_id;sensor_type;location;lat;lon;timestamp;P1;durP1;ratioP1;P2;durP2;ratioP2
34737;SDS011;39910;47.154;27.614;2023-08-01T00:02:21;12.05;;;11.45;;
34737;SDS011;39910;47.154;27.614;2023-08-01T00:04:46;12.13;;;11.52;;
34737;SDS011;39910;47.154;27.614;2023-08-01T00:07:11;11.52;;;11.02;;
34737;SDS011;39910;47.154;27.614;2023-08-01T00:09:37;11.07;;;10.57;;
34737;SDS011;39910;47.154;27.614;2023-08-01T00:12:02;11.70;;;11.20;;
34737;SDS011;39910;47.154;27.614;2023-08-01T00:14:27;11.30;;;10.80;;
34737;SDS011;39910;47.154;27.614;2023-08-01T00:16:53;11.60;;;11.10;;
34737;SDS011;39910;47.154;27.614;2023-08-01T00:19:18;12.23;;;11.63;;
34737;SDS011;39910;47.154;27.614;2023-08-01T00:21:43;11.38;;;10.88;;
34737;SDS011;39910;47.154;27.614;2023-08-01T00:24:09;11.50;;;11.00;;
34737;SDS011;39910;47.154;27.614;2023-08-01T00:26:34;11.48;;;10.98;;
34737;SDS011;39910;47.154;27.614;2023-08-01T00:28:59;11.30;;;10.80;;
34737;SDS011;39910;47.154;27.614;2023-08-01T00:31:25;11.48;;;10.98;;
34737;SDS011;39910;47.154;27.614;2023-08-01T00:33:50;11.48;;;10.98;;
34737;SDS011;39910;47.154;27.614;2023-08-01T00:36:15;11.82;;;11.30;;
34737;SDS011;39910;47.154;27.614;2023-08-01T00:38:40;11.70;;;11.20;;
34737;SDS011;39910;47.154;27.614;2023-08-01T00:41:08;11.40;;;10.90;;
34737;SDS011;39910;47.154;27.614;2023-08-01T00:43:33;11.35;;;10.85;;
34737;SDS011;39910;47.154;27.614;2023-08-01T00:45:59;11.30;;;10.80;;
34737;SDS011;39910;47.154;27.614;2023-08-01T00:48:25;11.50;;;11.00;;
34737;SDS011;39910;47.154;27.614;2023-08-01T00:50:50;12.27;;;11.68;;
34737;SDS011;39910;47.154;27.614;2023-08-01T00:53:17;11.50;;;11.00;;
34737;SDS011;39910;47.154;27.614;2023-08-01T00:55:43;12.13;;;11.52;;
34737;SDS011;39910;47.154;27.614;2023-08-01T00:58:08;11.30;;;10.80;;
34737;SDS011;39910;47.154;27.614;2023-08-01T01:00:33;11.57;;;11.07;;
34737;SDS011;39910;47.154;27.614;2023-08-01T01:02:59;11.50;;;11.00;;
34737;SDS011;39910;47.154;27.614;2023-08-01T01:05:24;12.38;;;11.77;;
34737;SDS011;39910;47.154;27.614;2023-08-01T01:07:50;12.18;;;11.57;;
34737;SDS011;39910;47.154;27.614;2023-08-01T01:10:16;11.50;;;11.00;;
34737;SDS011;39910;47.154;27.614;2023-08-01T01:12:41;11.48;;;10.98;;
34737;SDS011;39910;47.154;27.614;2023-08-01T01:15:06;11.45;;;10.95;;
34737;SDS011;39910;47.154;27.614;2023-08-01T01:17:32;11.27;;;10.77;;
34737;SDS011;39910;47.154;27.614;2023-08-01T01:19:57;11.50;;;11.00;;
34737;SDS011;39910;47.154;27.614;2023-08-01T01:22:25;11.52;;;11.02;;
34737;SDS011;39910;47.154;27.614;2023-08-01T01:24:50;11.65;;;11.15;;
34737;SDS011;39910;47.154;27.614;2023-08-01T01:27:17;11.57;;;11.07;;
34737;SDS011;39910;47.154;27.614;2023-08-01T01:29:43;12.18;;;11.57;;
34737;SDS011;39910;47.154;27.614;2023-08-01T01:32:08;11.52;;;11.02;;
34737;SDS011;39910;47.154;27.614;2023-08-01T01:34:34;12.38;;;11.77;;
34737;SDS011;39910;47.154;27.614;2023-08-01T01:37:00;11.35;;;10.85;;
34737;SDS011;39910;47.154;27.614;2023-08-01T01:39:25;11.85;;;11.25;;
34737;SDS011;39910;47.154;27.614;2023-08-01T01:41:50;11.43;;;10.93;;
34737;SDS011;39910;47.154;27.614;2023-08-01T01:44:15;11.43;;;10.93;;
34737;SDS011;39910;47.154;27.614;2023-08-01T01:46:41;11.77;;;11.18;;
34737;SDS011;39910;47.154;27.614;2023-08-01T01:49:06;11.60;;;11.10;;
34737;SDS011;39910;47.154;27.614;2023-08-01T01:51:31;11.75;;;11.15;;
34737;SDS011;39910;47.154;27.614;2023-08-01T01:53:57;11.40;;;10.90;;
34737;SDS011;39910;47.154;27.614;2023-08-01T01:56:22;11.63;;;11.10;;
34737;SDS011;39910;47.154;27.614;2023-08-01T01:58:49;11.07;;;10.57;;
34737;SDS011;39910;47.154;27.614;2023-08-01T02:01:14;11.18;;;10.68;;
34737;SDS011;39910;47.154;27.614;2023-08-01T02:03:39;11.45;;;10.95;;
34737;SDS011;39910;47.154;27.614;2023-08-01T02:06:05;11.07;;;10.57;;
34737;SDS011;39910;47.154;27.614;2023-08-01T02:08:30;11.20;;;10.70;;
34737;SDS011;39910;47.154;27.614;2023-08-01T02:10:55;11.95;;;11.35;;
34737;SDS011;39910;47.154;27.614;2023-08-01T02:13:23;11.55;;;11.05;;
34737;SDS011;39910;47.154;27.614;2023-08-01T02:15:48;11.50;;;11.00;;
34737;SDS011;39910;47.154;27.614;2023-08-01T02:18:14;11.65;;;11.15;;
34737;SDS011;39910;47.154;27.614;2023-08-01T02:20:39;11.55;;;11.05;;
34737;SDS011;39910;47.154;27.614;2023-08-01T02:23:04;11.75;;;11.18;;
34737;SDS011;39910;47.154;27.614;2023-08-01T02:25:30;11.13;;;10.63;;
34737;SDS011;39910;47.154;27.614;2023-08-01T02:27:55;10.82;;;10.32;;
34737;SDS011;39910;47.154;27.614;2023-08-01T02:30:20;11.30;;;10.80;;
34737;SDS011;39910;47.154;27.614;2023-08-01T02:32:45;11.45;;;10.95;;
34737;SDS011;39910;47.154;27.614;2023-08-01T02:35:11;11.48;;;10.98;;
34737;SDS011;39910;47.154;27.614;2023-08-01T02:37:36;11.65;;;11.15;;
34737;SDS011;39910;47.154;27.614;2023-08-01T02:40:02;11.90;;;11.30;;
34737;SDS011;39910;47.154;27.614;2023-08-01T02:42:32;11.80;;;11.20;;
34737;SDS011;39910;47.154;27.614;2023-08-01T02:44:57;11.30;;;10.80;;
34737;SDS011;39910;47.154;27.614;2023-08-01T02:47:23;11.73;;;11.18;;
34737;SDS011;39910;47.154;27.614;2023-08-01T02:49:48;12.00;;;11.40;;
34737;SDS011;39910;47.154;27.614;2023-08-01T02:52:13;11.40;;;10.90;;
34737;SDS011;39910;47.154;27.614;2023-08-01T02:54:39;10.93;;;10.43;;
34737;SDS011;39910;47.154;27.614;2023-08-01T02:57:04;11.43;;;10.93;;
34737;SDS011;39910;47.154;27.614;2023-08-01T02:59:29;11.93;;;11.32;;
34737;SDS011;39910;47.154;27.614;2023-08-01T03:01:58;11.00;;;10.50;;
34737;SDS011;39910;47.154;27.614;2023-08-01T03:04:23;11.95;;;11.35;;
34737;SDS011;39910;47.154;27.614;2023-08-01T03:06:48;12.00;;;11.40;;
34737;SDS011;39910;47.154;27.614;2023-08-01T03:09:13;11.30;;;10.80;;
34737;SDS011;39910;47.154;27.614;2023-08-01T03:11:39;11.60;;;11.10;;
34737;SDS011;39910;47.154;27.614;2023-08-01T03:14:04;11.32;;;10.82;;
34737;SDS011;39910;47.154;27.614;2023-08-01T03:16:30;11.80;;;11.25;;
34737;SDS011;39910;47.154;27.614;2023-08-01T03:18:55;11.52;;;11.02;;
34737;SDS011;39910;47.154;27.614;2023-08-01T03:21:21;11.70;;;11.20;;
34737;SDS011;39910;47.154;27.614;2023-08-01T03:23:46;11.30;;;10.80;;
34737;SDS011;39910;47.154;27.614;2023-08-01T03:26:12;11.25;;;10.75;;
34737;SDS011;39910;47.154;27.614;2023-08-01T03:28:37;11.20;;;10.70;;
34737;SDS011;39910;47.154;27.614;2023-08-01T03:31:03;12.13;;;11.52;;
34737;SDS011;39910;47.154;27.614;2023-08-01T03:33:28;11.90;;;11.40;;
34737;SDS011;39910;47.154;27.614;2023-08-01T03:35:54;11.50;;;11.00;;
34737;SDS011;39910;47.154;27.614;2023-08-01T03:38:19;12.07;;;11.50;;
34737;SDS011;39910;47.154;27.614;2023-08-01T03:40:44;11.70;;;11.20;;
34737;SDS011;39910;47.154;27.614;2023-08-01T03:43:10;11.60;;;11.10;;
34737;SDS011;39910;47.154;27.614;2023-08-01T03:45:35;11.75;;;11.25;;
34737;SDS011;39910;47.154;27.614;2023-08-01T03:48:00;11.70;;;11.20;;
34737;SDS011;39910;47.154;27.614;2023-08-01T03:50:26;11.60;;;11.10;;
34737;SDS011;39910;47.154;27.614;2023-08-01T03:52:51;11.65;;;11.15;;
34737;SDS011;39910;47.154;27.614;2023-08-01T03:55:17;11.40;;;10.90;;
34737;SDS011;39910;47.154;27.614;2023-08-01T03:57:42;11.48;;;10.98;;
34737;SDS011;39910;47.154;27.614;2023-08-01T04:00:08;11.70;;;11.20;;
34737;SDS011;39910;47.154;27.614;2023-08-01T04:02:41;11.65;;;11.15;;
34737;SDS011;39910;47.154;27.614;2023-08-01T04:05:07;12.43;;;11.88;;
34737;SDS011;39910;47.154;27.614;2023-08-01T04:07:35;11.65;;;11.15;;
34737;SDS011;39910;47.154;27.614;2023-08-01T04:10:01;11.60;;;11.10;;
34737;SDS011;39910;47.154;27.614;2023-08-01T04:12:26;11.52;;;11.02;;
34737;SDS011;39910;47.154;27.614;2023-08-01T04:14:52;11.70;;;11.20;;
34737;SDS011;39910;47.154;27.614;2023-08-01T04:17:17;11.55;;;11.05;;
34737;SDS011;39910;47.154;27.614;2023-08-01T04:19:42;12.10;;;11.60;;
34737;SDS011;39910;47.154;27.614;2023-08-01T04:22:08;11.45;;;10.95;;
34737;SDS011;39910;47.154;27.614;2023-08-01T04:24:34;12.00;;;11.50;;
34737;SDS011;39910;47.154;27.614;2023-08-01T04:26:59;11.88;;;11.38;;
34737;SDS011;39910;47.154;27.614;2023-08-01T04:29:24;11.67;;;11.17;;
34737;SDS011;39910;47.154;27.614;2023-08-01T04:31:50;12.05;;;11.55;;
34737;SDS011;39910;47.154;27.614;2023-08-01T04:34:16;11.83;;;11.33;;
34737;SDS011;39910;47.154;27.614;2023-08-01T04:36:41;11.80;;;11.30;;
34737;SDS011;39910;47.154;27.614;2023-08-01T04:39:07;11.80;;;11.30;;
34737;SDS011;39910;47.154;27.614;2023-08-01T04:41:32;11.90;;;11.40;;
34737;SDS011;39910;47.154;27.614;2023-08-01T04:43:57;11.83;;;11.33;;
34737;SDS011;39910;47.154;27.614;2023-08-01T04:46:22;11.70;;;11.20;;
34737;SDS011;39910;47.154;27.614;2023-08-01T04:48:48;11.75;;;11.25;;
34737;SDS011;39910;47.154;27.614;2023-08-01T04:51:13;11.90;;;11.40;;
34737;SDS011;39910;47.154;27.614;2023-08-01T04:53:38;11.27;;;10.77;;
34737;SDS011;39910;47.154;27.614;2023-08-01T04:56:06;12.20;;;11.70;;
34737;SDS011;39910;47.154;27.614;2023-08-01T04:58:32;11.40;;;10.90;;
34737;SDS011;39910;47.154;27.614;2023-08-01T05:00:57;11.77;;;11.27;;
34737;SDS011;39910;47.154;27.614;2023-08-01T05:03:22;11.50;;;11.00;;
34737;SDS011;39910;47.154;27.614;2023-08-01T05:05:48;11.93;;;11.43;;
34737;SDS011;39910;47.154;27.614;2023-08-01T05:08:13;11.52;;;11.02;;
34737;SDS011;39910;47.154;27.614;2023-08-01T05:10:38;11.90;;;11.40;;
34737;SDS011;39910;47.154;27.614;2023-08-01T05:13:04;12.20;;;11.70;;
34737;SDS011;39910;47.154;27.614;2023-08-01T05:15:29;11.82;;;11.32;;
34737;SDS011;39910;47.154;27.614;2023-08-01T05:17:54;11.95;;;11.45;;
34737;SDS011;39910;47.154;27.614;2023-08-01T05:20:20;12.15;;;11.65;;
34737;SDS011;39910;47.154;27.614;2023-08-01T05:22:46;12.05;;;11.55;;
34737;SDS011;39910;47.154;27.614;2023-08-01T05:25:11;12.07;;;11.57;;
34737;SDS011;39910;47.154;27.614;2023-08-01T05:27:36;11.90;;;11.40;;
34737;SDS011;39910;47.154;27.614;2023-08-01T05:30:02;12.07;;;11.57;;
34737;SDS011;39910;47.154;27.614;2023-08-01T05:32:27;12.30;;;11.80;;
34737;SDS011;39910;47.154;27.614;2023-08-01T05:34:52;12.07;;;11.57;;
34737;SDS011;39910;47.154;27.614;2023-08-01T05:37:18;12.48;;;11.93;;
34737;SDS011;39910;47.154;27.614;2023-08-01T05:39:43;11.82;;;11.32;;
34737;SDS011;39910;47.154;27.614;2023-08-01T05:42:08;11.83;;;11.33;;
34737;SDS011;39910;47.154;27.614;2023-08-01T05:44:34;11.75;;;11.25;;
34737;SDS011;39910;47.154;27.614;2023-08-01T05:46:59;12.13;;;11.63;;
34737;SDS011;39910;47.154;27.614;2023-08-01T05:49:25;11.83;;;11.33;;
34737;SDS011;39910;47.154;27.614;2023-08-01T05:51:50;11.98;;;11.48;;
34737;SDS011;39910;47.154;27.614;2023-08-01T05:54:16;11.80;;;11.30;;
34737;SDS011;39910;47.154;27.614;2023-08-01T05:56:41;11.90;;;11.40;;
34737;SDS011;39910;47.154;27.614;2023-08-01T05:59:06;11.40;;;10.90;;
34737;SDS011;39910;47.154;27.614;2023-08-01T06:01:32;11.77;;;11.27;;
34737;SDS011;39910;47.154;27.614;2023-08-01T06:03:57;11.60;;;11.10;;
34737;SDS011;39910;47.154;27.614;2023-08-01T06:06:22;12.30;;;11.80;;
34737;SDS011;39910;47.154;27.614;2023-08-01T06:08:47;12.27;;;11.77;;
34737;SDS011;39910;47.154;27.614;2023-08-01T06:11:13;12.27;;;11.77;;
34737;SDS011;39910;47.154;27.614;2023-08-01T06:13:38;12.13;;;11.63;;
34737;SDS011;39910;47.154;27.614;2023-08-01T06:16:03;11.90;;;11.40;;
34737;SDS011;39910;47.154;27.614;2023-08-01T06:18:29;12.52;;;11.95;;
34737;SDS011;39910;47.154;27.614;2023-08-01T06:20:54;11.52;;;11.02;;
34737;SDS011;39910;47.154;27.614;2023-08-01T06:23:19;11.80;;;11.30;;
34737;SDS011;39910;47.154;27.614;2023-08-01T06:25:44;11.83;;;11.33;;
34737;SDS011;39910;47.154;27.614;2023-08-01T06:28:10;12.03;;;11.53;;
34737;SDS011;39910;47.154;27.614;2023-08-01T06:30:35;12.43;;;11.87;;
34737;SDS011;39910;47.154;27.614;2023-08-01T06:33:00;12.52;;;11.93;;
34737;SDS011;39910;47.154;27.614;2023-08-01T06:35:26;12.73;;;12.13;;
34737;SDS011;39910;47.154;27.614;2023-08-01T06:37:51;12.02;;;11.52;;
34737;SDS011;39910;47.154;27.614;2023-08-01T06:40:17;12.23;;;11.73;;
34737;SDS011;39910;47.154;27.614;2023-08-01T06:42:43;12.45;;;11.88;;
34737;SDS011;39910;47.154;27.614;2023-08-01T06:45:08;12.10;;;11.60;;
34737;SDS011;39910;47.154;27.614;2023-08-01T06:47:33;12.23;;;11.73;;
34737;SDS011;39910;47.154;27.614;2023-08-01T06:49:59;12.45;;;11.85;;
34737;SDS011;39910;47.154;27.614;2023-08-01T06:52:24;12.73;;;12.13;;
34737;SDS011;39910;47.154;27.614;2023-08-01T06:54:49;11.63;;;11.13;;
34737;SDS011;39910;47.154;27.614;2023-08-01T06:57:15;12.10;;;11.60;;
34737;SDS011;39910;47.154;27.614;2023-08-01T06:59:40;12.75;;;12.15;;
34737;SDS011;39910;47.154;27.614;2023-08-01T07:02:05;12.23;;;11.73;;
34737;SDS011;39910;47.154;27.614;2023-08-01T07:04:31;12.07;;;11.57;;
34737;SDS011;39910;47.154;27.614;2023-08-01T07:06:56;12.18;;;11.68;;
34737;SDS011;39910;47.154;27.614;2023-08-01T07:09:22;12.07;;;11.57;;
34737;SDS011;39910;47.154;27.614;2023-08-01T07:11:47;11.98;;;11.48;;
34737;SDS011;39910;47.154;27.614;2023-08-01T07:14:12;12.30;;;11.77;;
34737;SDS011;39910;47.154;27.614;2023-08-01T07:16:38;12.20;;;11.70;;
34737;SDS011;39910;47.154;27.614;2023-08-01T07:19:03;12.13;;;11.63;;
34737;SDS011;39910;47.154;27.614;2023-08-01T07:21:28;12.90;;;12.30;;
34737;SDS011;39910;47.154;27.614;2023-08-01T07:23:54;12.25;;;11.75;;
34737;SDS011;39910;47.154;27.614;2023-08-01T07:26:19;12.00;;;11.50;;
34737;SDS011;39910;47.154;27.614;2023-08-01T07:28:44;12.07;;;11.57;;
34737;SDS011;39910;47.154;27.614;2023-08-01T07:31:10;12.10;;;11.60;;
34737;SDS011;39910;47.154;27.614;2023-08-01T07:33:35;12.23;;;11.73;;
34737;SDS011;39910;47.154;27.614;2023-08-01T07:36:01;11.82;;;11.32;;
34737;SDS011;39910;47.154;27.614;2023-08-01T07:38:26;12.20;;;11.70;;
34737;SDS011;39910;47.154;27.614;2023-08-01T07:40:52;12.07;;;11.57;;
34737;SDS011;39910;47.154;27.614;2023-08-01T07:43:17;12.13;;;11.63;;
34737;SDS011;39910;47.154;27.614;2023-08-01T07:45:44;12.18;;;11.68;;
34737;SDS011;39910;47.154;27.614;2023-08-01T07:48:09;11.80;;;11.30;;
34737;SDS011;39910;47.154;27.614;2023-08-01T07:50:34;12.13;;;11.63;;
34737;SDS011;39910;47.154;27.614;2023-08-01T07:52:59;11.73;;;11.23;;
34737;SDS011;39910;47.154;27.614;2023-08-01T07:55:25;11.88;;;11.38;;
34737;SDS011;39910;47.154;27.614;2023-08-01T07:57:50;11.50;;;11.00;;
34737;SDS011;39910;47.154;27.614;2023-08-01T08:00:16;11.75;;;11.25;;
34737;SDS011;39910;47.154;27.614;2023-08-01T08:02:42;12.10;;;11.60;;
34737;SDS011;39910;47.154;27.614;2023-08-01T08:05:07;12.55;;;11.95;;
34737;SDS011;39910;47.154;27.614;2023-08-01T08:07:33;12.07;;;11.57;;
34737;SDS011;39910;47.154;27.614;2023-08-01T08:09:58;12.40;;;11.80;;
34737;SDS011;39910;47.154;27.614;2023-08-01T08:12:23;12.10;;;11.60;;
34737;SDS011;39910;47.154;27.614;2023-08-01T08:14:49;12.80;;;12.20;;
34737;SDS011;39910;47.154;27.614;2023-08-01T08:17:14;12.40;;;11.80;;
34737;SDS011;39910;47.154;27.614;2023-08-01T08:19:40;12.70;;;12.10;;
34737;SDS011;39910;47.154;27.614;2023-08-01T08:22:05;13.13;;;12.52;;
34737;SDS011;39910;47.154;27.614;2023-08-01T08:24:30;12.40;;;11.80;;
34737;SDS011;39910;47.154;27.614;2023-08-01T08:26:56;12.27;;;11.73;;
34737;SDS011;39910;47.154;27.614;2023-08-01T08:29:21;12.07;;;11.57;;
34737;SDS011;39910;47.154;27.614;2023-08-01T08:31:47;12.45;;;11.88;;
34737;SDS011;39910;47.154;27.614;2023-08-01T08:34:12;11.98;;;11.48;;
34737;SDS011;39910;47.154;27.614;2023-08-01T08:36:37;12.73;;;12.13;;
34737;SDS011;39910;47.154;27.614;2023-08-01T08:39:03;12.65;;;12.05;;
34737;SDS011;39910;47.154;27.614;2023-08-01T08:41:29;12.52;;;11.93;;
34737;SDS011;39910;47.154;27.614;2023-08-01T08:43:58;12.55;;;11.95;;
34737;SDS011;39910;47.154;27.614;2023-08-01T08:46:28;12.15;;;11.65;;
34737;SDS011;39910;47.154;27.614;2023-08-01T08:48:54;12.10;;;11.60;;
34737;SDS011;39910;47.154;27.614;2023-08-01T08:51:19;12.48;;;11.88;;
34737;SDS011;39910;47.154;27.614;2023-08-01T08:53:45;11.98;;;11.48;;
34737;SDS011;39910;47.154;27.614;2023-08-01T08:56:12;12.10;;;11.60;;
34737;SDS011;39910;47.154;27.614;2023-08-01T08:58:37;11.85;;;11.35;;
34737;SDS011;39910;47.154;27.614;2023-08-01T09:01:06;12.60;;;12.00;;
34737;SDS011;39910;47.154;27.614;2023-08-01T09:03:33;12.63;;;12.02;;
34737;SDS011;39910;47.154;27.614;2023-08-01T09:06:07;12.45;;;11.85;;
34737;SDS011;39910;47.154;27.614;2023-08-01T09:08:35;12.25;;;11.73;;
34737;SDS011;39910;47.154;27.614;2023-08-01T09:11:01;12.30;;;11.70;;
34737;SDS011;39910;47.154;27.614;2023-08-01T09:13:26;12.13;;;11.63;;
34737;SDS011;39910;47.154;27.614;2023-08-01T09:15:51;12.00;;;11.50;;
34737;SDS011;39910;47.154;27.614;2023-08-01T09:18:17;11.82;;;11.32;;
34737;SDS011;39910;47.154;27.614;2023-08-01T09:20:43;13.00;;;12.40;;
34737;SDS011;39910;47.154;27.614;2023-08-01T09:23:09;12.88;;;12.27;;
34737;SDS011;39910;47.154;27.614;2023-08-01T09:25:36;12.57;;;11.98;;
34737;SDS011;39910;47.154;27.614;2023-08-01T09:28:01;12.60;;;12.00;;
34737;SDS011;39910;47.154;27.614;2023-08-01T09:30:26;12.40;;;11.80;;
34737;SDS011;39910;47.154;27.614;2023-08-01T09:32:53;12.55;;;11.95;;
34737;SDS011;39910;47.154;27.614;2023-08-01T09:35:18;12.77;;;12.18;;
34737;SDS011;39910;47.154;27.614;2023-08-01T09:37:44;13.45;;;12.85;;
34737;SDS011;39910;47.154;27.614;2023-08-01T09:40:09;12.40;;;11.80;;
34737;SDS011;39910;47.154;27.614;2023-08-01T09:42:38;12.70;;;12.10;;
34737;SDS011;39910;47.154;27.614;2023-08-01T09:45:06;12.48;;;11.88;;
34737;SDS011;39910;47.154;27.614;2023-08-01T09:47:37;13.10;;;12.50;;
34737;SDS011;39910;47.154;27.614;2023-08-01T09:50:02;12.80;;;12.20;;
34737;SDS011;39910;47.154;27.614;2023-08-01T09:52:28;12.60;;;12.00;;
34737;SDS011;39910;47.154;27.614;2023-08-01T09:54:54;12.57;;;11.98;;
34737;SDS011;39910;47.154;27.614;2023-08-01T09:57:20;12.10;;;11.60;;
34737;SDS011;39910;47.154;27.614;2023-08-01T09:59:47;11.85;;;11.35;;
34737;SDS011;39910;47.154;27.614;2023-08-01T10:02:14;12.07;;;11.57;;
34737;SDS011;39910;47.154;27.614;2023-08-01T10:04:40;12.05;;;11.55;;
34737;SDS011;39910;47.154;27.614;2023-08-01T10:07:08;12.73;;;12.13;;
34737;SDS011;39910;47.154;27.614;2023-08-01T10:09:33;12.55;;;11.95;;
34737;SDS011;39910;47.154;27.614;2023-08-01T10:12:00;12.10;;;11.60;;
34737;SDS011;39910;47.154;27.614;2023-08-01T10:14:26;11.93;;;11.43;;
34737;SDS011;39910;47.154;27.614;2023-08-01T10:16:52;12.63;;;12.02;;
34737;SDS011;39910;47.154;27.614;2023-08-01T10:19:19;12.68;;;12.07;;
34737;SDS011;39910;47.154;27.614;2023-08-01T10:21:44;12.43;;;11.82;;
34737;SDS011;39910;47.154;27.614;2023-08-01T10:24:11;13.18;;;12.57;;
34737;SDS011;39910;47.154;27.614;2023-08-01T10:26:37;12.68;;;12.07;;
34737;SDS011;39910;47.154;27.614;2023-08-01T10:29:02;12.50;;;11.90;;
34737;SDS011;39910;47.154;27.614;2023-08-01T10:31:28;12.45;;;11.85;;
34737;SDS011;39910;47.154;27.614;2023-08-01T10:34:02;12.85;;;12.25;;
34737;SDS011;39910;47.154;27.614;2023-08-01T10:36:28;12.35;;;11.75;;
34737;SDS011;39910;47.154;27.614;2023-08-01T10:38:55;11.98;;;11.48;;
34737;SDS011;39910;47.154;27.614;2023-08-01T10:43:45;12.10;;;11.60;;
34737;SDS011;39910;47.154;27.614;2023-08-01T10:46:11;12.07;;;11.57;;
34737;SDS011;39910;47.154;27.614;2023-08-01T10:48:47;12.50;;;11.90;;
34737;SDS011;39910;47.154;27.614;2023-08-01T10:51:12;12.35;;;11.75;;
34737;SDS011;39910;47.154;27.614;2023-08-01T10:53:38;12.57;;;11.97;;
34737;SDS011;39910;47.154;27.614;2023-08-01T10:56:04;11.80;;;11.30;;
34737;SDS011;39910;47.154;27.614;2023-08-01T10:58:29;12.20;;;11.67;;
34737;SDS011;39910;47.154;27.614;2023-08-01T11:00:58;12.68;;;12.07;;
34737;SDS011;39910;47.154;27.614;2023-08-01T11:03:33;12.15;;;11.63;;
34737;SDS011;39910;47.154;27.614;2023-08-01T11:05:58;11.90;;;11.40;;
34737;SDS011;39910;47.154;27.614;2023-08-01T11:08:33;12.37;;;11.77;;
34737;SDS011;39910;47.154;27.614;2023-08-01T11:10:58;12.10;;;11.57;;
34737;SDS011;39910;47.154;27.614;2023-08-01T11:13:23;12.48;;;11.88;;
34737;SDS011;39910;47.154;27.614;2023-08-01T11:15:49;12.00;;;11.50;;
34737;SDS011;39910;47.154;27.614;2023-08-01T11:18:14;11.77;;;11.27;;
34737;SDS011;39910;47.154;27.614;2023-08-01T11:20:39;12.05;;;11.55;;
34737;SDS011;39910;47.154;27.614;2023-08-01T11:23:06;12.57;;;11.98;;
34737;SDS011;39910;47.154;27.614;2023-08-01T11:25:38;12.27;;;11.68;;
34737;SDS011;39910;47.154;27.614;2023-08-01T11:28:08;12.35;;;11.75;;
34737;SDS011;39910;47.154;27.614;2023-08-01T11:30:33;11.88;;;11.38;;
34737;SDS011;39910;47.154;27.614;2023-08-01T11:32:59;12.55;;;11.95;;
34737;SDS011;39910;47.154;27.614;2023-08-01T11:35:25;12.10;;;11.60;;
34737;SDS011;39910;47.154;27.614;2023-08-01T11:37:50;11.97;;;11.47;;
34737;SDS011;39910;47.154;27.614;2023-08-01T11:40:16;12.45;;;11.85;;
34737;SDS011;39910;47.154;27.614;2023-08-01T11:42:41;11.82;;;11.32;;
34737;SDS011;39910;47.154;27.614;2023-08-01T11:45:10;12.20;;;11.68;;
34737;SDS011;39910;47.154;27.614;2023-08-01T11:47:36;11.88;;;11.38;;
34737;SDS011;39910;47.154;27.614;2023-08-01T11:50:01;12.05;;;11.55;;
34737;SDS011;39910;47.154;27.614;2023-08-01T11:52:27;12.40;;;11.80;;
34737;SDS011;39910;47.154;27.614;2023-08-01T11:54:53;12.38;;;11.77;;
34737;SDS011;39910;47.154;27.614;2023-08-01T11:57:19;12.15;;;11.65;;
34737;SDS011;39910;47.154;27.614;2023-08-01T11:59:54;11.90;;;11.40;;
34737;SDS011;39910;47.154;27.614;2023-08-01T12:02:27;11.88;;;11.38;;
34737;SDS011;39910;47.154;27.614;2023-08-01T12:04:53;11.48;;;10.98;;
34737;SDS011;39910;47.154;27.614;2023-08-01T12:07:19;11.95;;;11.45;;
34737;SDS011;39910;47.154;27.614;2023-08-01T12:09:46;12.25;;;11.68;;
34737;SDS011;39910;47.154;27.614;2023-08-01T12:12:19;11.98;;;11.48;;
34737;SDS011;39910;47.154;27.614;2023-08-01T12:14:44;12.07;;;11.57;;
34737;SDS011;39910;47.154;27.614;2023-08-01T12:17:10;11.90;;;11.40;;
34737;SDS011;39910;47.154;27.614;2023-08-01T12:19:35;12.00;;;11.50;;
34737;SDS011;39910;47.154;27.614;2023-08-01T12:22:00;11.90;;;11.40;;
34737;SDS011;39910;47.154;27.614;2023-08-01T12:24:26;12.25;;;11.68;;
34737;SDS011;39910;47.154;27.614;2023-08-01T12:26:51;12.10;;;11.60;;
34737;SDS011;39910;47.154;27.614;2023-08-01T12:29:16;11.88;;;11.38;;
34737;SDS011;39910;47.154;27.614;2023-08-01T12:31:42;11.77;;;11.27;;
34737;SDS011;39910;47.154;27.614;2023-08-01T12:34:07;12.20;;;11.65;;
34737;SDS011;39910;47.154;27.614;2023-08-01T12:36:32;12.20;;;11.65;;
34737;SDS011;39910;47.154;27.614;2023-08-01T12:38:58;12.13;;;11.63;;
34737;SDS011;39910;47.154;27.614;2023-08-01T12:41:23;11.95;;;11.45;;
34737;SDS011;39910;47.154;27.614;2023-08-01T12:43:49;11.80;;;11.30;;
34737;SDS011;39910;47.154;27.614;2023-08-01T12:46:14;12.18;;;11.68;;
34737;SDS011;39910;47.154;27.614;2023-08-01T12:48:40;12.00;;;11.50;;
34737;SDS011;39910;47.154;27.614;2023-08-01T12:51:05;12.45;;;11.85;;
34737;SDS011;39910;47.154;27.614;2023-08-01T12:53:30;12.18;;;11.68;;
34737;SDS011;39910;47.154;27.614;2023-08-01T12:55:56;12.10;;;11.57;;
34737;SDS011;39910;47.154;27.614;2023-08-01T12:58:21;12.38;;;11.80;;
34737;SDS011;39910;47.154;27.614;2023-08-01T13:00:46;11.98;;;11.48;;
34737;SDS011;39910;47.154;27.614;2023-08-01T13:03:12;12.05;;;11.55;;
34737;SDS011;39910;47.154;27.614;2023-08-01T13:05:38;12.00;;;11.50;;
34737;SDS011;39910;47.154;27.614;2023-08-01T13:08:04;12.10;;;11.60;;
34737;SDS011;39910;47.154;27.614;2023-08-01T13:10:30;12.00;;;11.50;;
34737;SDS011;39910;47.154;27.614;2023-08-01T13:12:56;12.63;;;12.02;;
34737;SDS011;39910;47.154;27.614;2023-08-01T13:15:22;12.63;;;12.02;;
34737;SDS011;39910;47.154;27.614;2023-08-01T13:17:47;12.05;;;11.55;;
34737;SDS011;39910;47.154;27.614;2023-08-01T13:20:12;12.23;;;11.67;;
34737;SDS011;39910;47.154;27.614;2023-08-01T13:22:38;12.43;;;11.82;;
34737;SDS011;39910;47.154;27.614;2023-08-01T13:25:03;12.10;;;11.60;;
34737;SDS011;39910;47.154;27.614;2023-08-01T13:27:29;12.15;;;11.65;;
34737;SDS011;39910;47.154;27.614;2023-08-01T13:29:54;11.97;;;11.47;;
34737;SDS011;39910;47.154;27.614;2023-08-01T13:32:19;12.20;;;11.67;;
34737;SDS011;39910;47.154;27.614;2023-08-01T13:34:44;12.52;;;11.93;;
34737;SDS011;39910;47.154;27.614;2023-08-01T13:37:11;12.68;;;12.07;;
34737;SDS011;39910;47.154;27.614;2023-08-01T13:39:36;12.05;;;11.55;;
34737;SDS011;39910;47.154;27.614;2023-08-01T13:42:01;12.27;;;11.68;;
34737;SDS011;39910;47.154;27.614;2023-08-01T13:44:27;12.35;;;11.75;;
34737;SDS011;39910;47.154;27.614;2023-08-01T13:46:53;11.90;;;11.40;;
34737;SDS011;39910;47.154;27.614;2023-08-01T13:49:18;12.38;;;11.77;;
34737;SDS011;39910;47.154;27.614;2023-08-01T13:51:43;12.80;;;12.20;;
34737;SDS011;39910;47.154;27.614;2023-08-01T13:54:08;12.07;;;11.55;;
34737;SDS011;39910;47.154;27.614;2023-08-01T13:56:34;12.43;;;11.82;;
34737;SDS011;39910;47.154;27.614;2023-08-01T13:58:59;11.90;;;11.40;;
34737;SDS011;39910;47.154;27.614;2023-08-01T14:01:24;12.57;;;11.97;;
34737;SDS011;39910;47.154;27.614;2023-08-01T14:03:50;12.00;;;11.50;;